Time;durP1;ratioP1;P1;durP2;ratioP2;P2;SDS_P1;SDS_P2;PMS_P1;PMS_P2;Temp;Humidity;BMP_temperature;BMP_pressure;BME280_temperature;BME280_humidity;BME280_pressure;Samples;Min_cycle;Max_cycle;Signal;HPM_P1;HPM_P2
2021/08/09 00:01:10;;;;;;;;;;;11.80;99.90;;;;;;8425303;28;20006;-68
2021/08/09 00:05:10;;;;;;;;;;;11.70;99.90;;;;;;8430471;28;19916;-68
2021/08/09 00:09:10;;;;;;;;;;;11.70;99.90;;;;;;8459416;28;20056;-68
2021/08/09 00:13:11;;;;;;;;;;;11.70;99.90;;;;;;8459193;28;19957;-67
2021/08/09 00:17:11;;;;;;;;;;;11.90;99.90;;;;;;8458867;28;19954;-68
2021/08/09 00:21:12;;;;;;;;;;;11.90;99.90;;;;;;8448208;28;19965;-68
2021/08/09 00:25:13;;;;;;;;;;;11.80;99.90;;;;;;8425051;28;19908;-68
2021/08/09 00:29:14;;;;;;;;;;;11.70;99.90;;;;;;8425192;28;19920;-67
2021/08/09 00:33:14;;;;;;;;;;;11.90;99.90;;;;;;8425484;28;19908;-67
2021/08/09 00:37:15;;;;;;;;;;;11.80;99.90;;;;;;8424966;28;19915;-67
2021/08/09 00:41:15;;;;;;;;;;;11.70;99.90;;;;;;8424849;28;20278;-68
2021/08/09 00:45:16;;;;;;;;;;;11.60;99.90;;;;;;8424642;28;20282;-68
2021/08/09 00:49:17;;;;;;;;;;;11.70;99.90;;;;;;8424094;28;19912;-68
2021/08/09 00:53:17;;;;;;;;;;;11.70;99.90;;;;;;8425270;28;19909;-67
2021/08/09 00:57:17;;;;;;;;;;;11.50;99.90;;;;;;8424428;28;19908;-67
2021/08/09 01:01:18;;;;;;;;;;;11.40;99.90;;;;;;8424070;28;19916;-67
2021/08/09 01:05:18;;;;;;;;;;;11.40;99.90;;;;;;8424755;28;19908;-67
2021/08/09 01:09:25;;;;;;;;;;;11.40;99.90;;;;;;8429048;28;19943;-68
2021/08/09 01:13:37;;;;;;;;;;;11.40;99.90;;;;;;8430520;28;19960;-68
2021/08/09 01:17:41;;;;;;;;;;;11.30;99.90;;;;;;8429856;28;19915;-68
2021/08/09 01:21:42;;;;;;;;;;;11.20;99.90;;;;;;8430518;28;19916;-68
2021/08/09 01:25:48;;;;;;;;;;;11.10;99.90;;;;;;8429585;28;20378;-67
2021/08/09 01:29:50;;;;;;;;;;;11.00;99.90;;;;;;8429435;28;19908;-67
2021/08/09 01:33:50;;;;;;;;;;;10.90;99.90;;;;;;8430098;28;19944;-67
2021/08/09 01:37:56;;;;;;;;;;;10.80;99.90;;;;;;8429034;28;20374;-67
2021/08/09 01:41:56;;;;;;;;;;;11.00;99.90;;;;;;8429433;28;20317;-68
2021/08/09 01:45:57;;;;;;;;;;;11.30;99.90;;;;;;8429549;28;20048;-67
2021/08/09 01:49:58;;;;;;;;;;;11.50;99.90;;;;;;8429028;28;19915;-67
2021/08/09 01:53:59;;;;;;;;;;;11.50;99.90;;;;;;8445389;28;19907;-67
2021/08/09 01:58:00;;;;;;;;;;;11.20;99.90;;;;;;8444825;28;19912;-67
2021/08/09 02:02:00;;;;;;;;;;;11.00;99.90;;;;;;8444727;28;19916;-67
2021/08/09 02:06:00;;;;;;;;;;;10.90;99.90;;;;;;8442424;28;19914;-68
2021/08/09 02:10:03;;;;;;;;;;;10.70;99.90;;;;;;8444153;28;19919;-68
2021/08/09 02:14:05;;;;;;;;;;;10.70;99.90;;;;;;8444363;28;19916;-67
2021/08/09 02:18:08;;;;;;;;;;;10.80;99.90;;;;;;8442081;28;19908;-68
2021/08/09 02:22:12;;;;;;;;;;;10.70;99.90;;;;;;8434913;28;19939;-68
2021/08/09 02:26:14;;;;;;;;;;;10.60;99.90;;;;;;8435911;28;20358;-67
2021/08/09 02:30:16;;;;;;;;;;;10.70;99.90;;;;;;8443013;28;19915;-67
2021/08/09 02:34:18;;;;;;;;;;;10.60;99.90;;;;;;8446528;28;19908;-67
2021/08/09 02:38:19;;;;;;;;;;;10.80;99.90;;;;;;8460996;28;19915;-68
2021/08/09 02:42:20;;;;;;;;;;;10.70;99.90;;;;;;8461227;28;19912;-67
2021/08/09 02:46:21;;;;;;;;;;;10.50;99.90;;;;;;8461075;28;19992;-67
2021/08/09 02:50:21;;;;;;;;;;;10.40;99.90;;;;;;8426375;28;19919;-67
2021/08/09 02:54:22;;;;;;;;;;;10.30;99.90;;;;;;8427160;28;19908;-68
2021/08/09 02:58:23;;;;;;;;;;;10.50;99.90;;;;;;8425991;28;20433;-68
2021/08/09 03:02:24;;;;;;;;;;;10.60;99.90;;;;;;8426970;28;19916;-68
2021/08/09 03:06:25;;;;;;;;;;;10.50;99.90;;;;;;8427419;28;19970;-68
2021/08/09 03:10:26;;;;;;;;;;;10.40;99.90;;;;;;8426776;28;19912;-68
2021/08/09 03:14:27;;;;;;;;;;;10.50;99.90;;;;;;8426594;28;19916;-68
2021/08/09 03:18:34;;;;;;;;;;;10.50;99.90;;;;;;8425152;28;20357;-68
2021/08/09 03:22:34;;;;;;;;;;;10.50;99.90;;;;;;8426777;28;20289;-67
2021/08/09 03:26:35;;;;;;;;;;;10.80;99.90;;;;;;8426060;28;19915;-68
2021/08/09 03:30:35;;;;;;;;;;;11.10;99.90;;;;;;8445784;28;19922;-68
2021/08/09 03:34:36;;;;;;;;;;;10.90;99.90;;;;;;8443935;28;19966;-68
2021/08/09 03:38:36;;;;;;;;;;;10.70;99.90;;;;;;8459052;28;19911;-68
2021/08/09 03:42:37;;;;;;;;;;;10.60;99.90;;;;;;8459593;28;19923;-68
2021/08/09 03:46:37;;;;;;;;;;;10.70;99.90;;;;;;8459595;28;19907;-68
2021/08/09 03:50:38;;;;;;;;;;;11.00;99.90;;;;;;8428199;28;19912;-68
2021/08/09 03:54:38;;;;;;;;;;;11.10;99.90;;;;;;8428441;28;20270;-68
2021/08/09 03:58:39;;;;;;;;;;;11.00;99.90;;;;;;8426500;28;19913;-68
2021/08/09 04:02:40;;;;;;;;;;;10.80;99.90;;;;;;8426172;28;19912;-68
2021/08/09 04:06:41;;;;;;;;;;;10.70;99.90;;;;;;8425659;28;20433;-68
2021/08/09 04:10:41;;;;;;;;;;;10.80;99.90;;;;;;8425434;28;19908;-68
2021/08/09 04:14:42;;;;;;;;;;;10.80;99.90;;;;;;8425124;28;19966;-68
2021/08/09 04:18:42;;;;;;;;;;;10.80;99.90;;;;;;8425000;28;19916;-68
2021/08/09 04:22:43;;;;;;;;;;;10.80;99.90;;;;;;8425567;28;19971;-68
2021/08/09 04:26:43;;;;;;;;;;;10.80;99.90;;;;;;8423560;28;19916;-68
2021/08/09 04:30:43;;;;;;;;;;;10.90;99.90;;;;;;8426142;28;19923;-68
2021/08/09 04:34:44;;;;;;;;;;;10.90;99.90;;;;;;8440610;28;19921;-68
2021/08/09 04:38:45;;;;;;;;;;;10.90;99.90;;;;;;8439208;28;19912;-71
2021/08/09 04:42:45;;;;;;;;;;;11.00;99.90;;;;;;8442183;28;19918;-68
2021/08/09 04:46:46;;;;;;;;;;;11.00;99.90;;;;;;8446864;28;19919;-68
2021/08/09 04:50:46;;;;;;;;;;;11.20;99.90;;;;;;8447230;28;19920;-68
2021/08/09 04:54:47;;;;;;;;;;;11.10;99.90;;;;;;8445742;28;19936;-68
2021/08/09 04:58:47;;;;;;;;;;;11.30;99.90;;;;;;8447414;28;19919;-68
2021/08/09 05:02:47;;;;;;;;;;;11.50;99.90;;;;;;8440807;28;19924;-68
2021/08/09 05:06:49;;;;;;;;;;;11.60;99.90;;;;;;8434946;28;19958;-68
2021/08/09 05:10:49;;;;;;;;;;;11.70;99.90;;;;;;8431393;28;19912;-68
2021/08/09 05:14:50;;;;;;;;;;;12.10;99.90;;;;;;8431354;28;19919;-68
2021/08/09 05:18:53;;;;;;;;;;;12.10;99.90;;;;;;8455499;28;19916;-68
2021/08/09 05:22:53;;;;;;;;;;;11.90;99.90;;;;;;8438754;28;19912;-68
2021/08/09 05:26:55;;;;;;;;;;;12.00;99.90;;;;;;8429757;28;20438;-68
2021/08/09 05:30:56;;;;;;;;;;;12.00;99.90;;;;;;8428669;28;19912;-68
2021/08/09 05:34:57;;;;;;;;;;;12.00;99.90;;;;;;8429660;28;20390;-68
2021/08/09 05:38:59;;;;;;;;;;;12.20;99.90;;;;;;8428063;28;20010;-68
2021/08/09 05:42:59;;;;;;;;;;;12.60;99.90;;;;;;8429335;28;19943;-69
2021/08/09 05:46:59;;;;;;;;;;;12.90;99.90;;;;;;8437102;28;19913;-68
2021/08/09 05:51:00;;;;;;;;;;;13.40;99.90;;;;;;8448885;28;19912;-68
2021/08/09 05:55:02;;;;;;;;;;;13.70;99.90;;;;;;8428930;28;19908;-68
2021/08/09 05:59:02;;;;;;;;;;;14.10;99.90;;;;;;8429082;28;20595;-68
2021/08/09 06:03:03;;;;;;;;;;;14.40;99.90;;;;;;8431476;28;19912;-69
2021/08/09 06:07:03;;;;;;;;;;;14.70;99.90;;;;;;8428095;28;19916;-68
2021/08/09 06:11:04;;;;;;;;;;;15.10;99.90;;;;;;8428700;28;19920;-69
2021/08/09 06:15:05;;;;;;;;;;;15.50;99.90;;;;;;8428650;28;19908;-68
2021/08/09 06:19:05;;;;;;;;;;;16.10;99.90;;;;;;8427521;28;19948;-68
2021/08/09 06:23:06;;;;;;;;;;;16.20;99.90;;;;;;8428637;28;20386;-69
2021/08/09 06:27:06;;;;;;;;;;;16.40;99.90;;;;;;8439763;28;19919;-69
2021/08/09 06:31:07;;;;;;;;;;;16.80;99.90;;;;;;8427502;28;19941;-69
2021/08/09 06:35:08;;;;;;;;;;;17.10;99.90;;;;;;8427804;28;19908;-67
2021/08/09 06:39:10;;;;;;;;;;;17.30;99.90;;;;;;8427293;28;19908;-67
2021/08/09 06:43:11;;;;;;;;;;;17.60;99.90;;;;;;8434198;28;19958;-67
2021/08/09 06:47:11;;;;;;;;;;;17.60;99.90;;;;;;8443559;28;19969;-69
2021/08/09 06:51:12;;;;;;;;;;;17.60;99.90;;;;;;8445413;28;20400;-68
2021/08/09 06:55:12;;;;;;;;;;;17.50;99.90;;;;;;8426886;28;19909;-68
2021/08/09 06:59:13;;;;;;;;;;;17.20;99.90;;;;;;8425635;28;19924;-69
2021/08/09 07:03:16;;;;;;;;;;;17.30;99.90;;;;;;8426618;28;19918;-69
2021/08/09 07:07:16;;;;;;;;;;;17.40;99.90;;;;;;8425472;28;19916;-69
2021/08/09 07:11:17;;;;;;;;;;;17.50;99.90;;;;;;8450831;27;19961;-69
2021/08/09 07:15:18;;;;;;;;;;;18.00;99.90;;;;;;8465054;27;19915;-69
2021/08/09 07:19:18;;;;;;;;;;;18.30;99.90;;;;;;8446477;28;19959;-69
2021/08/09 07:23:19;;;;;;;;;;;18.40;99.90;;;;;;8439797;28;19923;-69
2021/08/09 07:27:19;;;;;;;;;;;18.60;99.90;;;;;;8443807;28;19919;-68
2021/08/09 07:31:20;;;;;;;;;;;18.90;99.90;;;;;;8441909;27;19911;-69
2021/08/09 07:35:20;;;;;;;;;;;18.90;99.90;;;;;;8436094;28;19918;-68
2021/08/09 07:39:21;;;;;;;;;;;19.20;99.90;;;;;;8437548;28;19922;-69
2021/08/09 07:43:21;;;;;;;;;;;19.20;99.90;;;;;;8438240;28;19945;-69
2021/08/09 07:47:22;;;;;;;;;;;19.30;99.90;;;;;;8439738;28;19919;-69
2021/08/09 07:51:22;;;;;;;;;;;19.60;99.90;;;;;;8439245;28;19927;-67
2021/08/09 07:55:23;;;;;;;;;;;19.70;99.90;;;;;;8440295;28;20369;-67
2021/08/09 07:59:23;;;;;;;;;;;19.90;99.90;;;;;;8441401;28;20006;-67
2021/08/09 08:03:24;;;;;;;;;;;20.10;99.90;;;;;;8440059;28;20301;-66
2021/08/09 08:07:25;;;;;;;;;;;20.00;99.90;;;;;;8441387;28;19908;-66
2021/08/09 08:11:25;;;;;;;;;;;20.30;99.90;;;;;;8440035;28;20400;-69
2021/08/09 08:15:26;;;;;;;;;;;20.20;99.90;;;;;;8442829;28;19953;-68
2021/08/09 08:19:26;;;;;;;;;;;20.30;99.90;;;;;;8457870;28;19912;-68
2021/08/09 08:23:26;;;;;;;;;;;20.40;99.90;;;;;;8436271;27;19988;-69
2021/08/09 08:27:27;;;;;;;;;;;20.60;99.90;;;;;;8431502;28;19908;-69
2021/08/09 08:31:27;;;;;;;;;;;20.30;99.90;;;;;;8431919;28;19961;-69
2021/08/09 08:35:28;;;;;;;;;;;20.50;99.90;;;;;;8431320;28;19908;-69
2021/08/09 08:39:29;;;;;;;;;;;20.70;99.90;;;;;;8441995;28;19923;-69
2021/08/09 08:43:30;;;;;;;;;;;21.00;99.90;;;;;;8465101;28;20446;-68
2021/08/09 08:47:31;;;;;;;;;;;21.40;99.90;;;;;;8464788;28;19916;-69
2021/08/09 08:51:32;;;;;;;;;;;21.30;99.90;;;;;;8467682;28;19919;-68
2021/08/09 08:55:32;;;;;;;;;;;21.40;99.90;;;;;;8464283;28;19915;-68
2021/08/09 08:59:33;;;;;;;;;;;21.50;99.90;;;;;;8418278;22;19935;-62
2021/08/09 09:03:39;;;;;;;;;;;21.60;99.90;;;;;;8396572;28;19947;-61
2021/08/09 09:07:40;;;;;;;;;;;21.70;99.90;;;;;;8412641;28;19914;-62
2021/08/09 09:11:40;;;;;;;;;;;21.90;99.90;;;;;;8427802;28;19923;-62
2021/08/09 09:15:58;;;;;;;;;;;22.30;99.90;;;;;;8412473;28;19919;-62
2021/08/09 09:20:02;;;;;;;;;;;22.40;99.90;;;;;;8411732;28;19967;-62
2021/08/09 09:24:21;;;;;;;;;;;22.60;99.90;;;;;;8415704;28;19920;-62
2021/08/09 09:28:29;;;;;;;;;;;22.70;99.90;;;;;;8422578;28;19919;-62
2021/08/09 09:32:29;;;;;;;;;;;22.70;99.90;;;;;;8428640;28;19927;-62
2021/08/09 09:37:09;;;;;;;;;;;22.70;99.90;;;;;;8426636;28;19974;-62
2021/08/09 09:41:09;;;;;;;;;;;22.70;99.90;;;;;;8205147;28;19925;-62
2021/08/09 09:45:16;;;;;;;;;;;23.00;99.90;;;;;;8319448;28;19963;-62
2021/08/09 09:49:33;;;;;;;;;;;23.50;99.90;;;;;;8404274;28;19915;-62
2021/08/09 09:53:33;;;;;;;;;;;23.70;99.90;;;;;;8423898;28;19950;-62
2021/08/09 09:57:34;;;;;;;;;;;23.70;99.90;;;;;;8423784;28;19916;-62
2021/08/09 10:01:35;;;;;;;;;;;23.80;99.90;;;;;;8425182;28;19959;-62
2021/08/09 10:05:37;;;;;;;;;;;23.70;99.90;;;;;;8427249;28;20006;-62
2021/08/09 10:09:38;;;;;;;;;;;24.00;99.90;;;;;;8428861;28;19908;-62
2021/08/09 10:13:38;;;;;;;;;;;24.50;99.90;;;;;;8428702;28;19915;-62
2021/08/09 10:17:42;;;;;;;;;;;24.80;99.90;;;;;;8428239;28;20393;-62
2021/08/09 10:21:42;;;;;;;;;;;24.60;99.90;;;;;;8428324;28;19922;-62
2021/08/09 10:25:44;;;;;;;;;;;24.60;99.90;;;;;;8428339;28;19908;-62
2021/08/09 10:30:00;;;;;;;;;;;24.90;99.90;;;;;;8427930;28;19995;-62
2021/08/09 10:34:01;;;;;;;;;;;25.20;99.00;;;;;;8428118;28;19915;-62
2021/08/09 10:38:14;;;;;;;;;;;25.20;98.20;;;;;;8427644;28;19918;-62
2021/08/09 10:42:27;;;;;;;;;;;25.10;96.10;;;;;;8426889;28;19912;-62
2021/08/09 10:46:33;;;;;;;;;;;25.40;98.20;;;;;;8427977;28;19908;-62
2021/08/09 10:50:38;;;;;;;;;;;25.80;98.90;;;;;;8427466;28;19908;-62
2021/08/09 10:54:39;;;;;;;;;;;25.50;95.50;;;;;;8427590;28;20297;-62
2021/08/09 10:58:42;;;;;;;;;;;25.40;96.30;;;;;;8426477;28;19916;-62
2021/08/09 11:03:02;;;;;;;;;;;25.30;94.10;;;;;;8427284;28;20003;-62
2021/08/09 11:07:14;;;;;;;;;;;25.00;93.00;;;;;;8409411;28;19999;-62
2021/08/09 11:11:14;;;;;;;;;;;24.80;93.00;;;;;;8408974;28;19909;-62
2021/08/09 11:15:15;;;;;;;;;;;24.70;93.00;;;;;;8427094;28;20400;-65
2021/08/09 11:19:19;;;;;;;;;;;25.30;93.50;;;;;;8426596;28;20445;-62
2021/08/09 11:23:19;;;;;;;;;;;28.00;85.20;;;;;;8426636;28;19908;-62
2021/08/09 11:27:20;;;;;;;;;;;31.80;79.70;;;;;;8426382;28;19912;-63
2021/08/09 11:31:20;;;;;;;;;;;35.00;61.60;;;;;;8426390;28;19908;-62
2021/08/09 11:35:21;;;;;;;;;;;35.20;56.80;;;;;;8426303;28;19918;-62
2021/08/09 11:39:38;;;;;;;;;;;34.50;51.30;;;;;;8425953;28;19908;-63
2021/08/09 11:43:39;;;;;;;;;;;35.20;53.30;;;;;;8426147;28;20285;-63
2021/08/09 11:47:46;;;;;;;;;;;36.90;48.70;;;;;;8425700;28;19908;-63
2021/08/09 11:51:47;;;;;;;;;;;38.10;49.20;;;;;;8407839;28;20255;-62
2021/08/09 11:55:47;;;;;;;;;;;36.90;45.00;;;;;;8425891;28;20011;-62
2021/08/09 11:59:51;;;;;;;;;;;36.10;44.20;;;;;;8425549;28;19912;-62
2021/08/09 12:04:12;;;;;;;;;;;35.20;44.30;;;;;;8425269;28;22427;-63
2021/08/09 12:08:13;;;;;;;;;;;36.30;45.80;;;;;;8425489;28;19969;-63
2021/08/09 12:12:14;;;;;;;;;;;37.10;40.80;;;;;;8425709;28;19908;-63
2021/08/09 12:16:15;;;;;;;;;;;37.30;42.50;;;;;;8425419;28;19912;-63
2021/08/09 12:20:16;;;;;;;;;;;38.00;39.80;;;;;;8425054;28;20314;-62
2021/08/09 12:24:20;;;;;;;;;;;37.60;39.60;;;;;;8425512;28;19951;-62
2021/08/09 12:28:28;;;;;;;;;;;35.70;40.30;;;;;;8425092;28;20323;-62
2021/08/09 12:32:29;;;;;;;;;;;35.70;42.00;;;;;;8425275;28;19908;-62
2021/08/09 12:36:29;;;;;;;;;;;36.30;43.10;;;;;;8425258;28;19908;-62
2021/08/09 12:40:44;;;;;;;;;;;35.40;42.10;;;;;;8420264;28;19916;-62
2021/08/09 12:44:45;;;;;;;;;;;34.60;44.10;;;;;;8410589;28;19990;-62
2021/08/09 12:48:49;;;;;;;;;;;34.10;42.90;;;;;;8420564;28;20362;-62
2021/08/09 12:52:50;;;;;;;;;;;35.10;40.80;;;;;;8421030;28;19912;-63
2021/08/09 12:56:50;;;;;;;;;;;36.80;39.50;;;;;;8422038;28;19923;-62
2021/08/09 13:00:51;;;;;;;;;;;35.70;40.10;;;;;;8423164;28;20366;-62
2021/08/09 13:04:51;;;;;;;;;;;36.60;40.30;;;;;;8420077;28;20007;-63
2021/08/09 13:08:52;;;;;;;;;;;37.00;39.10;;;;;;8401881;28;19919;-63
2021/08/09 13:12:52;;;;;;;;;;;39.40;38.90;;;;;;8419272;28;20465;-63
2021/08/09 13:16:53;;;;;;;;;;;40.90;35.30;;;;;;8429915;28;19990;-63
2021/08/09 13:20:53;;;;;;;;;;;40.90;33.00;;;;;;8421850;28;19916;-62
2021/08/09 13:24:54;;;;;;;;;;;38.90;35.30;;;;;;8422352;28;19961;-63
2021/08/09 13:28:55;;;;;;;;;;;38.20;36.30;;;;;;8417562;28;19908;-63
2021/08/09 13:32:56;;;;;;;;;;;38.00;37.00;;;;;;8413642;28;20293;-63
2021/08/09 13:36:58;;;;;;;;;;;38.30;38.70;;;;;;8403775;28;19908;-63
2021/08/09 13:40:59;;;;;;;;;;;39.70;35.90;;;;;;8428804;28;19924;-63
2021/08/09 13:44:59;;;;;;;;;;;38.60;37.40;;;;;;8429146;28;19919;-63
2021/08/09 13:49:00;;;;;;;;;;;37.30;37.50;;;;;;8422118;28;19912;-63
2021/08/09 13:53:00;;;;;;;;;;;37.80;36.90;;;;;;8418261;28;19915;-63
2021/08/09 13:57:01;;;;;;;;;;;35.70;39.10;;;;;;8428514;28;20353;-63
2021/08/09 14:01:01;;;;;;;;;;;36.20;38.80;;;;;;8413098;28;20293;-63
2021/08/09 14:05:02;;;;;;;;;;;37.90;39.70;;;;;;8427217;28;20323;-63
2021/08/09 14:09:02;;;;;;;;;;;39.20;34.60;;;;;;8426244;28;19916;-63
2021/08/09 14:13:03;;;;;;;;;;;38.60;35.30;;;;;;8426885;28;20388;-63
2021/08/09 14:17:04;;;;;;;;;;;35.80;38.30;;;;;;8408747;28;19912;-63
2021/08/09 14:21:04;;;;;;;;;;;34.20;42.90;;;;;;8407960;28;19920;-63
2021/08/09 14:25:05;;;;;;;;;;;35.60;39.80;;;;;;8427486;28;19926;-63
2021/08/09 14:29:06;;;;;;;;;;;38.10;38.00;;;;;;8408959;28;19912;-63
2021/08/09 14:33:06;;;;;;;;;;;38.60;36.60;;;;;;8407836;28;19912;-63
2021/08/09 14:37:07;;;;;;;;;;;37.60;38.10;;;;;;8425883;28;19912;-63
2021/08/09 14:41:07;;;;;;;;;;;38.50;36.30;;;;;;8425985;28;19916;-63
2021/08/09 14:45:08;;;;;;;;;;;38.90;35.50;;;;;;8427109;28;20289;-63
2021/08/09 14:49:08;;;;;;;;;;;38.00;38.00;;;;;;8404458;28;20028;-62
2021/08/09 14:53:09;;;;;;;;;;;36.90;37.40;;;;;;8400268;28;19973;-63
2021/08/09 14:57:10;;;;;;;;;;;35.90;38.80;;;;;;8495925;22;19924;-67
2021/08/09 15:01:10;;;;;;;;;;;34.20;42.20;;;;;;8456947;28;19923;-66
2021/08/09 15:05:11;;;;;;;;;;;33.10;41.90;;;;;;8458307;28;19907;-67
2021/08/09 15:09:11;;;;;;;;;;;32.20;45.60;;;;;;8436858;28;19909;-66
2021/08/09 15:13:12;;;;;;;;;;;30.50;47.10;;;;;;8420796;28;19930;-66
2021/08/09 15:17:13;;;;;;;;;;;29.00;48.30;;;;;;8422308;28;20011;-66
2021/08/09 15:21:14;;;;;;;;;;;27.70;50.40;;;;;;8426068;28;19958;-65
2021/08/09 15:25:14;;;;;;;;;;;26.70;53.10;;;;;;8444892;28;19957;-66
2021/08/09 15:29:15;;;;;;;;;;;26.10;55.20;;;;;;8459721;28;19931;-66
2021/08/09 15:33:15;;;;;;;;;;;26.00;53.50;;;;;;8459826;28;19911;-66
2021/08/09 15:37:16;;;;;;;;;;;25.90;54.50;;;;;;8441227;28;19919;-65
2021/08/09 15:41:17;;;;;;;;;;;25.80;56.10;;;;;;8421169;28;20388;-65
2021/08/09 15:45:17;;;;;;;;;;;25.70;55.60;;;;;;8438936;28;20309;-66
2021/08/09 15:49:21;;;;;;;;;;;25.20;56.60;;;;;;8458563;28;19953;-66
2021/08/09 15:53:21;;;;;;;;;;;25.00;58.50;;;;;;8418770;28;20139;-66
2021/08/09 15:57:22;;;;;;;;;;;25.20;58.80;;;;;;8424306;28;19920;-66
2021/08/09 16:01:22;;;;;;;;;;;25.20;60.30;;;;;;8407505;28;19919;-65
2021/08/09 16:05:23;;;;;;;;;;;24.90;60.80;;;;;;8425871;28;19908;-65
2021/08/09 16:09:23;;;;;;;;;;;24.80;59.60;;;;;;8425981;28;19912;-66
2021/08/09 16:13:24;;;;;;;;;;;24.60;60.80;;;;;;8427854;28;19919;-66
2021/08/09 16:17:26;;;;;;;;;;;24.40;62.90;;;;;;8398331;28;19973;-67
2021/08/09 16:21:26;;;;;;;;;;;23.90;64.40;;;;;;8423903;28;20458;-67
2021/08/09 16:25:27;;;;;;;;;;;23.80;65.50;;;;;;8403097;28;19913;-66
2021/08/09 16:29:27;;;;;;;;;;;23.70;66.30;;;;;;8391069;28;19913;-65
2021/08/09 16:33:31;;;;;;;;;;;23.40;66.60;;;;;;8396694;28;19920;-66
2021/08/09 16:37:32;;;;;;;;;;;23.10;68.90;;;;;;8395980;28;19923;-66
2021/08/09 16:41:33;;;;;;;;;;;23.10;70.40;;;;;;8409757;28;19916;-66
2021/08/09 16:45:34;;;;;;;;;;;23.00;70.70;;;;;;8408926;28;19913;-67
2021/08/09 16:49:35;;;;;;;;;;;22.80;72.00;;;;;;8410946;28;19961;-66
2021/08/09 16:53:35;;;;;;;;;;;22.80;72.10;;;;;;8430823;28;19912;-66
2021/08/09 16:57:36;;;;;;;;;;;22.50;72.80;;;;;;8412699;28;19927;-67
2021/08/09 17:01:36;;;;;;;;;;;22.40;73.50;;;;;;8411069;28;20477;-66
2021/08/09 17:05:37;;;;;;;;;;;22.20;73.80;;;;;;8421029;28;19923;-66
2021/08/09 17:09:37;;;;;;;;;;;22.20;74.80;;;;;;8413891;28;19915;-66
2021/08/09 17:13:38;;;;;;;;;;;22.20;75.20;;;;;;8413716;28;20514;-66
2021/08/09 17:17:38;;;;;;;;;;;22.10;76.20;;;;;;8413164;28;19908;-66
2021/08/09 17:21:39;;;;;;;;;;;22.00;76.30;;;;;;8424716;28;19916;-67
2021/08/09 17:25:41;;;;;;;;;;;21.90;78.10;;;;;;8396142;28;19916;-67
2021/08/09 17:29:41;;;;;;;;;;;21.80;79.10;;;;;;8417722;28;19950;-66
2021/08/09 17:33:42;;;;;;;;;;;21.60;80.80;;;;;;8405038;28;20386;-66
2021/08/09 17:37:42;;;;;;;;;;;21.60;81.80;;;;;;8393582;28;19912;-66
2021/08/09 17:41:43;;;;;;;;;;;21.50;83.00;;;;;;8430114;28;20436;-67
2021/08/09 17:45:43;;;;;;;;;;;21.40;83.50;;;;;;8407901;28;19912;-66
2021/08/09 17:49:44;;;;;;;;;;;21.50;83.70;;;;;;8402259;28;20083;-66
2021/08/09 17:53:44;;;;;;;;;;;21.40;85.30;;;;;;8397149;28;19999;-66
2021/08/09 17:57:45;;;;;;;;;;;21.50;85.90;;;;;;8399647;28;19927;-67
2021/08/09 18:01:48;;;;;;;;;;;21.50;90.00;;;;;;8429276;28;20377;-66
2021/08/09 18:05:48;;;;;;;;;;;21.70;90.10;;;;;;8428822;28;19922;-66
2021/08/09 18:09:49;;;;;;;;;;;21.80;88.60;;;;;;8414676;28;20034;-67
2021/08/09 18:13:50;;;;;;;;;;;21.60;89.90;;;;;;8407790;28;19982;-66
2021/08/09 18:17:54;;;;;;;;;;;21.50;90.20;;;;;;8396741;28;19913;-66
2021/08/09 18:21:54;;;;;;;;;;;21.30;91.40;;;;;;8381599;28;19916;-67
2021/08/09 18:25:55;;;;;;;;;;;21.10;92.60;;;;;;8394675;28;20340;-67
2021/08/09 18:29:56;;;;;;;;;;;21.00;94.60;;;;;;8394887;28;19916;-66
2021/08/09 18:33:56;;;;;;;;;;;21.00;96.10;;;;;;8404124;28;19913;-66
2021/08/09 18:37:57;;;;;;;;;;;21.00;97.10;;;;;;8407650;28;19915;-66
2021/08/09 18:41:57;;;;;;;;;;;20.60;99.90;;;;;;8429800;28;19938;-66
2021/08/09 18:45:58;;;;;;;;;;;20.40;99.90;;;;;;8434499;28;20408;-66
2021/08/09 18:49:58;;;;;;;;;;;20.40;99.90;;;;;;8417728;28;19928;-66
2021/08/09 18:53:59;;;;;;;;;;;19.90;99.90;;;;;;8400518;28;20030;-67
2021/08/09 18:58:02;;;;;;;;;;;19.50;99.90;;;;;;8382549;28;19917;-67
2021/08/09 19:02:03;;;;;;;;;;;19.20;99.90;;;;;;8399535;28;19916;-66
2021/08/09 19:06:04;;;;;;;;;;;19.10;99.90;;;;;;8426737;28;19908;-66
2021/08/09 19:10:08;;;;;;;;;;;18.90;99.90;;;;;;8394035;28;19916;-66
2021/08/09 19:14:08;;;;;;;;;;;18.70;99.90;;;;;;8376845;28;19916;-66
2021/08/09 19:18:09;;;;;;;;;;;18.40;99.90;;;;;;8391411;28;19923;-66
2021/08/09 19:22:09;;;;;;;;;;;18.50;99.90;;;;;;8396625;28;19923;-66
2021/08/09 19:26:10;;;;;;;;;;;18.20;99.90;;;;;;8400902;28;19914;-66
2021/08/09 19:30:10;;;;;;;;;;;18.10;99.90;;;;;;8381158;28;20277;-66
2021/08/09 19:34:17;;;;;;;;;;;17.90;99.90;;;;;;8408565;28;19901;-67
2021/08/09 19:38:18;;;;;;;;;;;17.50;99.90;;;;;;8387024;28;19915;-67
2021/08/09 19:42:21;;;;;;;;;;;17.20;99.90;;;;;;8403457;28;20517;-67
2021/08/09 19:46:21;;;;;;;;;;;16.90;99.90;;;;;;8387014;28;19992;-66
2021/08/09 19:50:22;;;;;;;;;;;17.20;99.90;;;;;;8387616;28;20366;-66
2021/08/09 19:54:22;;;;;;;;;;;16.80;99.90;;;;;;8379021;28;20386;-66
2021/08/09 19:58:23;;;;;;;;;;;16.60;99.90;;;;;;8419185;28;19941;-66
2021/08/09 20:02:23;;;;;;;;;;;16.40;99.90;;;;;;8414432;28;19924;-66
2021/08/09 20:06:28;;;;;;;;;;;16.10;99.90;;;;;;8443040;28;19934;-65
2021/08/09 20:10:28;;;;;;;;;;;16.00;99.90;;;;;;8440248;28;20416;-65
2021/08/09 20:14:29;;;;;;;;;;;16.00;99.90;;;;;;8441382;28;19915;-65
2021/08/09 20:18:30;;;;;;;;;;;16.10;99.90;;;;;;8438003;28;20430;-66
2021/08/09 20:22:30;;;;;;;;;;;15.70;99.90;;;;;;8435745;28;19920;-65
2021/08/09 20:26:31;;;;;;;;;;;15.90;99.90;;;;;;8434058;28;19954;-66
2021/08/09 20:30:32;;;;;;;;;;;15.70;99.90;;;;;;8422846;28;19908;-65
2021/08/09 20:34:32;;;;;;;;;;;15.60;99.90;;;;;;8440997;28;20067;-65
2021/08/09 20:38:33;;;;;;;;;;;15.50;99.90;;;;;;8440865;28;19950;-65
2021/08/09 20:42:33;;;;;;;;;;;15.40;99.90;;;;;;8434554;28;20353;-65
2021/08/09 20:46:34;;;;;;;;;;;15.40;99.90;;;;;;8424856;28;19919;-65
2021/08/09 20:50:35;;;;;;;;;;;15.40;99.90;;;;;;8424329;28;19908;-65
2021/08/09 20:54:36;;;;;;;;;;;15.40;99.90;;;;;;8418170;28;20011;-65
2021/08/09 20:58:36;;;;;;;;;;;15.20;99.90;;;;;;8456479;22;19923;-64
2021/08/09 21:02:37;;;;;;;;;;;15.00;99.90;;;;;;8450945;28;19984;-64
2021/08/09 21:06:38;;;;;;;;;;;15.10;99.90;;;;;;8454475;28;20436;-64
2021/08/09 21:10:40;;;;;;;;;;;15.20;99.90;;;;;;8430088;28;19912;-64
2021/08/09 21:14:40;;;;;;;;;;;15.20;99.90;;;;;;8424315;28;20342;-64
2021/08/09 21:18:40;;;;;;;;;;;15.40;99.90;;;;;;8420810;28;19931;-64
2021/08/09 21:22:41;;;;;;;;;;;15.40;99.90;;;;;;8404739;28;19923;-64
2021/08/09 21:26:41;;;;;;;;;;;15.30;99.90;;;;;;8429382;28;20006;-64
2021/08/09 21:30:42;;;;;;;;;;;15.10;99.90;;;;;;8411906;28;19916;-64
2021/08/09 21:34:42;;;;;;;;;;;15.10;99.90;;;;;;8411641;28;19916;-64
2021/08/09 21:38:43;;;;;;;;;;;15.20;99.90;;;;;;8429574;28;19916;-64
2021/08/09 21:42:43;;;;;;;;;;;15.30;99.90;;;;;;8428681;28;19927;-64
2021/08/09 21:46:44;;;;;;;;;;;15.20;99.90;;;;;;8406184;28;19917;-63
2021/08/09 21:50:44;;;;;;;;;;;15.10;99.90;;;;;;8409904;28;20011;-64
2021/08/09 21:54:45;;;;;;;;;;;14.80;99.90;;;;;;8429310;28;19920;-64
2021/08/09 21:58:45;;;;;;;;;;;14.50;99.90;;;;;;8427449;28;19916;-64
2021/08/09 22:02:46;;;;;;;;;;;14.30;99.90;;;;;;8426622;28;19912;-64
2021/08/09 22:06:46;;;;;;;;;;;14.30;99.90;;;;;;8426960;28;19969;-64
2021/08/09 22:10:46;;;;;;;;;;;14.30;99.90;;;;;;8426278;28;19912;-64
2021/08/09 22:14:47;;;;;;;;;;;14.20;99.90;;;;;;8428386;28;19908;-64
2021/08/09 22:18:47;;;;;;;;;;;14.00;99.90;;;;;;8428431;28;19908;-64
2021/08/09 22:22:48;;;;;;;;;;;14.20;99.90;;;;;;8428434;28;20014;-63
2021/08/09 22:26:48;;;;;;;;;;;14.10;99.90;;;;;;8429280;28;20328;-64
2021/08/09 22:30:49;;;;;;;;;;;14.00;99.90;;;;;;8428509;28;20074;-64
2021/08/09 22:34:49;;;;;;;;;;;14.00;99.90;;;;;;8428076;28;19962;-64
2021/08/09 22:38:50;;;;;;;;;;;13.80;99.90;;;;;;8427682;28;19919;-64
2021/08/09 22:42:50;;;;;;;;;;;14.20;99.90;;;;;;8427858;28;20218;-64
2021/08/09 22:46:51;;;;;;;;;;;13.80;99.90;;;;;;8428099;28;19908;-64
2021/08/09 22:50:51;;;;;;;;;;;13.70;99.90;;;;;;8427441;28;19919;-64
2021/08/09 22:54:52;;;;;;;;;;;13.70;99.90;;;;;;8427262;28;19915;-64
2021/08/09 22:58:53;;;;;;;;;;;13.60;99.90;;;;;;8426920;28;20259;-64
2021/08/09 23:02:53;;;;;;;;;;;13.80;99.90;;;;;;8427230;28;19927;-64
2021/08/09 23:06:54;;;;;;;;;;;13.90;99.90;;;;;;8427332;28;19908;-64
2021/08/09 23:10:54;;;;;;;;;;;13.80;99.90;;;;;;8426535;28;19961;-64
2021/08/09 23:14:55;;;;;;;;;;;13.90;99.90;;;;;;8427468;28;19908;-64
2021/08/09 23:18:55;;;;;;;;;;;13.60;99.90;;;;;;8426405;28;19915;-64
2021/08/09 23:22:55;;;;;;;;;;;13.60;99.90;;;;;;8408439;28;19995;-64